This is the latest recevied weather packets stored in our database for station/object K9UO. If no packets are shown the sender has not sent any weather packets the latest 10 day(s).
| Time | Temp. | Humidity | Pressure | Rain* | Wind** | Luminosity | Snow |
|---|---|---|---|---|---|---|---|
| 1777770960 | 6.67° C | 58% | 1018.1 hPa | 0 mm | - | - | - |
| 1777770052 | 7.22° C | 55% | 1018 hPa | 0 mm | - | - | - |
| 1777769141 | 7.78° C | 52% | 1017.9 hPa | 0 mm | - | - | - |
| 1777768235 | 8.33° C | 51% | 1017.8 hPa | 0 mm | - | - | - |
| 1777767330 | 8.33° C | 51% | 1017.7 hPa | 0 mm | - | - | - |
| 1777766427 | 8.89° C | 47% | 1017.7 hPa | 0 mm | - | - | - |
| 1777765522 | 9.44° C | 45% | 1017.7 hPa | 0 mm | - | - | - |
| 1777764618 | 8.89° C | 46% | 1017.6 hPa | 0 mm | - | - | - |
| 1777763719 | 9.44° C | 46% | 1017.7 hPa | 0 mm | - | - | - |
| 1777762809 | 9.44° C | 45% | 1017.8 hPa | 0 mm | - | - | - |
| 1777761905 | 8.89° C | 46% | 1017.9 hPa | 0 mm | - | - | - |
| 1777761060 | 8.89° C | 47% | 1017.9 hPa | 0 mm | - | - | - |
| 1777760156 | 8.89° C | 46% | 1017.9 hPa | 0 mm | - | - | - |
| 1777759252 | 8.33° C | 48% | 1018.1 hPa | 0 mm | - | - | - |
| 1777758348 | 8.33° C | 48% | 1018.1 hPa | 0 mm | - | - | - |
| 1777757443 | 8.33° C | 48% | 1018.1 hPa | 0 mm | - | - | - |
| 1777756546 | 8.33° C | 50% | 1018.1 hPa | 0 mm | - | - | - |
| 1777755634 | 8.33° C | 47% | 1018 hPa | 0 mm | - | - | - |
| 1777754731 | 8.33° C | 48% | 1018.1 hPa | 0 mm | - | - | - |
| 1777753824 | 7.78° C | 51% | 1018.1 hPa | 0 mm | - | - | - |
| 1777752920 | 7.78° C | 51% | 1018.2 hPa | 0 mm | - | - | - |
| 1777752016 | 8.33° C | 52% | 1018.2 hPa | 0 mm | - | - | - |
| 1777751113 | 7.78° C | 53% | 1018.4 hPa | 0 mm | - | - | - |
| 1777750209 | 7.78° C | 52% | 1018.4 hPa | 0 mm | - | - | - |
| 1777749306 | 7.78° C | 51% | 1018.6 hPa | 0 mm | - | - | - |
* Rain latest hour (hover to see other rain measurements)
** Current wind speed in m/s (hover to see current wind gust speed)